Chalan Pago, Guam
Current Conditions -  °F | °C
As of 11:54 PM on Sunday 21 Dec 2014 (Local Time) from PGUM Reporting Station
Scattered Clouds Scattered Clouds  
Wind Chill: 82°   Ceiling: Unl
Heat Index: 89°   Visibility: 10mi
Dew Point: 76°   Wind: 13mph
Humidity: 82%   Direction: 90°E
Pressure: 29.87"   Gusts: NA
Location:  13.4744°N, 144.7478°E
Report Text: PGUM 211354Z 09011KT 10SM FEW020 SCT027 SCT110 28/24 A2987 RMK AO2 SLP107 T02780244 403170272
Loading
Personal Weather Stations






























Interactive Weather Map New forecast layout! Learn more

10-Day Weather Forecast

Advertisements
Track Severe Weather on mobile